sensor_id;sensor_type;location;lat;lon;timestamp;temperature;humidity
75262;DHT22;63859;51.064;4.580;2024-02-21T00:11:56;9.10;99.90
75262;DHT22;63859;51.064;4.580;2024-02-21T00:14:24;9.10;99.90
75262;DHT22;63859;51.064;4.580;2024-02-21T00:16:49;9.10;99.90
75262;DHT22;63859;51.064;4.580;2024-02-21T00:19:15;9.10;99.90
75262;DHT22;63859;51.064;4.580;2024-02-21T00:24:07;9.10;99.90
75262;DHT22;63859;51.064;4.580;2024-02-21T00:31:24;9.10;99.90
75262;DHT22;63859;51.064;4.580;2024-02-21T00:33:50;9.10;99.90
75262;DHT22;63859;51.064;4.580;2024-02-21T00:36:16;9.10;99.90
75262;DHT22;63859;51.064;4.580;2024-02-21T00:41:07;9.10;99.90
75262;DHT22;63859;51.064;4.580;2024-02-21T00:43:33;9.10;99.90
75262;DHT22;63859;51.064;4.580;2024-02-21T00:48:25;9.10;99.90
75262;DHT22;63859;51.064;4.580;2024-02-21T00:50:52;9.10;99.90
75262;DHT22;63859;51.064;4.580;2024-02-21T00:53:17;9.10;99.90
75262;DHT22;63859;51.064;4.580;2024-02-21T00:55:43;9.10;99.90
75262;DHT22;63859;51.064;4.580;2024-02-21T01:03:01;9.10;99.90
75262;DHT22;63859;51.064;4.580;2024-02-21T01:05:27;9.10;99.90
75262;DHT22;63859;51.064;4.580;2024-02-21T01:07:54;9.10;99.90
75262;DHT22;63859;51.064;4.580;2024-02-21T01:10:20;9.00;99.90
75262;DHT22;63859;51.064;4.580;2024-02-21T01:15:12;9.10;99.90
75262;DHT22;63859;51.064;4.580;2024-02-21T01:22:32;9.10;99.90
75262;DHT22;63859;51.064;4.580;2024-02-21T01:24:58;9.10;99.90
75262;DHT22;63859;51.064;4.580;2024-02-21T01:29:49;9.10;99.90
75262;DHT22;63859;51.064;4.580;2024-02-21T01:32:16;9.10;99.90
75262;DHT22;63859;51.064;4.580;2024-02-21T01:34:41;9.10;99.90
75262;DHT22;63859;51.064;4.580;2024-02-21T01:41:59;9.10;99.90
75262;DHT22;63859;51.064;4.580;2024-02-21T01:44:25;9.10;99.90
75262;DHT22;63859;51.064;4.580;2024-02-21T01:46:52;9.10;99.90
75262;DHT22;63859;51.064;4.580;2024-02-21T01:51:45;9.10;99.90
75262;DHT22;63859;51.064;4.580;2024-02-21T01:54:11;9.10;99.90
75262;DHT22;63859;51.064;4.580;2024-02-21T01:56:39;9.10;99.90
75262;DHT22;63859;51.064;4.580;2024-02-21T01:59:05;9.00;99.90
75262;DHT22;63859;51.064;4.580;2024-02-21T02:01:30;9.00;99.90
75262;DHT22;63859;51.064;4.580;2024-02-21T02:06:23;8.90;99.90
75262;DHT22;63859;51.064;4.580;2024-02-21T02:08:48;8.90;99.90
75262;DHT22;63859;51.064;4.580;2024-02-21T02:11:14;8.90;99.90
75262;DHT22;63859;51.064;4.580;2024-02-21T02:13:40;8.90;99.90
75262;DHT22;63859;51.064;4.580;2024-02-21T02:18:32;8.90;99.90
75262;DHT22;63859;51.064;4.580;2024-02-21T02:23:30;8.90;99.90
75262;DHT22;63859;51.064;4.580;2024-02-21T02:25:57;8.90;99.90
75262;DHT22;63859;51.064;4.580;2024-02-21T02:28:23;8.90;99.90
75262;DHT22;63859;51.064;4.580;2024-02-21T02:30:49;8.90;99.90
75262;DHT22;63859;51.064;4.580;2024-02-21T02:35:43;8.90;99.90
75262;DHT22;63859;51.064;4.580;2024-02-21T02:38:08;8.90;99.90
75262;DHT22;63859;51.064;4.580;2024-02-21T02:40:35;8.90;99.90
75262;DHT22;63859;51.064;4.580;2024-02-21T02:43:01;8.90;99.90
75262;DHT22;63859;51.064;4.580;2024-02-21T02:45:26;8.90;99.90
75262;DHT22;63859;51.064;4.580;2024-02-21T02:52:49;8.90;99.90
75262;DHT22;63859;51.064;4.580;2024-02-21T02:55:15;8.90;99.90
75262;DHT22;63859;51.064;4.580;2024-02-21T02:57:40;8.90;99.90
75262;DHT22;63859;51.064;4.580;2024-02-21T03:02:38;8.90;99.90
75262;DHT22;63859;51.064;4.580;2024-02-21T03:05:15;8.90;99.90
75262;DHT22;63859;51.064;4.580;2024-02-21T03:07:41;8.90;99.90
75262;DHT22;63859;51.064;4.580;2024-02-21T03:10:08;8.90;99.90
75262;DHT22;63859;51.064;4.580;2024-02-21T03:12:33;8.90;99.90
75262;DHT22;63859;51.064;4.580;2024-02-21T03:17:25;8.90;99.90
75262;DHT22;63859;51.064;4.580;2024-02-21T03:19:54;8.80;99.90
75262;DHT22;63859;51.064;4.580;2024-02-21T03:22:21;8.90;99.90
75262;DHT22;63859;51.064;4.580;2024-02-21T03:24:47;8.90;99.90
75262;DHT22;63859;51.064;4.580;2024-02-21T03:27:12;8.90;99.90
75262;DHT22;63859;51.064;4.580;2024-02-21T03:29:38;8.90;99.90
75262;DHT22;63859;51.064;4.580;2024-02-21T03:32:04;8.80;99.90
75262;DHT22;63859;51.064;4.580;2024-02-21T03:34:30;8.80;99.90
75262;DHT22;63859;51.064;4.580;2024-02-21T03:36:55;8.80;99.90
75262;DHT22;63859;51.064;4.580;2024-02-21T03:39:21;8.80;99.90
75262;DHT22;63859;51.064;4.580;2024-02-21T03:41:47;8.80;99.90
75262;DHT22;63859;51.064;4.580;2024-02-21T03:44:13;8.80;99.90
75262;DHT22;63859;51.064;4.580;2024-02-21T03:46:38;8.80;99.90
75262;DHT22;63859;51.064;4.580;2024-02-21T03:49:04;8.80;99.90
75262;DHT22;63859;51.064;4.580;2024-02-21T03:51:30;8.70;99.90
75262;DHT22;63859;51.064;4.580;2024-02-21T03:53:56;8.70;99.90
75262;DHT22;63859;51.064;4.580;2024-02-21T03:56:21;8.70;99.90
75262;DHT22;63859;51.064;4.580;2024-02-21T04:01:15;8.80;99.90
75262;DHT22;63859;51.064;4.580;2024-02-21T04:08:33;8.80;99.90
75262;DHT22;63859;51.064;4.580;2024-02-21T04:10:59;8.80;99.90
75262;DHT22;63859;51.064;4.580;2024-02-21T04:18:17;8.80;99.90
75262;DHT22;63859;51.064;4.580;2024-02-21T04:20:43;8.80;99.90
75262;DHT22;63859;51.064;4.580;2024-02-21T04:25:35;8.80;99.90
75262;DHT22;63859;51.064;4.580;2024-02-21T04:30:27;8.80;99.90
75262;DHT22;63859;51.064;4.580;2024-02-21T04:35:18;8.80;99.90
75262;DHT22;63859;51.064;4.580;2024-02-21T04:37:44;8.80;99.90
75262;DHT22;63859;51.064;4.580;2024-02-21T04:42:36;8.80;99.90
75262;DHT22;63859;51.064;4.580;2024-02-21T04:47:28;8.80;99.90
75262;DHT22;63859;51.064;4.580;2024-02-21T04:52:20;8.80;99.90
75262;DHT22;63859;51.064;4.580;2024-02-21T04:54:45;8.80;99.90
75262;DHT22;63859;51.064;4.580;2024-02-21T04:57:11;8.80;99.90
75262;DHT22;63859;51.064;4.580;2024-02-21T04:59:36;8.80;99.90
75262;DHT22;63859;51.064;4.580;2024-02-21T05:06:55;8.80;99.90
75262;DHT22;63859;51.064;4.580;2024-02-21T05:09:20;8.70;99.90
75262;DHT22;63859;51.064;4.580;2024-02-21T05:16:39;8.70;99.90
75262;DHT22;63859;51.064;4.580;2024-02-21T05:19:05;8.70;99.90
75262;DHT22;63859;51.064;4.580;2024-02-21T05:21:31;8.70;99.90
75262;DHT22;63859;51.064;4.580;2024-02-21T05:26:26;8.60;99.90
75262;DHT22;63859;51.064;4.580;2024-02-21T05:31:19;8.60;99.90
75262;DHT22;63859;51.064;4.580;2024-02-21T05:36:12;8.60;99.90
75262;DHT22;63859;51.064;4.580;2024-02-21T05:38:38;8.60;99.90
75262;DHT22;63859;51.064;4.580;2024-02-21T05:41:04;8.60;99.90
75262;DHT22;63859;51.064;4.580;2024-02-21T05:43:30;8.60;99.90
75262;DHT22;63859;51.064;4.580;2024-02-21T05:45:56;8.60;99.90
75262;DHT22;63859;51.064;4.580;2024-02-21T05:50:51;8.60;99.90
75262;DHT22;63859;51.064;4.580;2024-02-21T05:53:16;8.60;99.90
75262;DHT22;63859;51.064;4.580;2024-02-21T05:55:42;8.50;99.90
75262;DHT22;63859;51.064;4.580;2024-02-21T05:58:08;8.60;99.90
75262;DHT22;63859;51.064;4.580;2024-02-21T06:05:30;8.50;99.90
75262;DHT22;63859;51.064;4.580;2024-02-21T06:07:57;8.50;99.90
75262;DHT22;63859;51.064;4.580;2024-02-21T06:12:48;8.50;99.90
75262;DHT22;63859;51.064;4.580;2024-02-21T06:17:40;8.50;99.90
75262;DHT22;63859;51.064;4.580;2024-02-21T06:20:06;8.50;99.90
75262;DHT22;63859;51.064;4.580;2024-02-21T06:22:32;8.50;99.90
75262;DHT22;63859;51.064;4.580;2024-02-21T06:24:58;8.50;99.90
75262;DHT22;63859;51.064;4.580;2024-02-21T06:29:50;8.50;99.90
75262;DHT22;63859;51.064;4.580;2024-02-21T06:32:15;8.60;99.90
75262;DHT22;63859;51.064;4.580;2024-02-21T06:34:41;8.60;99.90
75262;DHT22;63859;51.064;4.580;2024-02-21T06:39:33;8.60;99.90
75262;DHT22;63859;51.064;4.580;2024-02-21T06:41:58;8.60;99.90
75262;DHT22;63859;51.064;4.580;2024-02-21T06:44:25;8.60;99.90
75262;DHT22;63859;51.064;4.580;2024-02-21T06:46:51;8.60;99.90
75262;DHT22;63859;51.064;4.580;2024-02-21T06:51:43;8.60;99.90
75262;DHT22;63859;51.064;4.580;2024-02-21T06:54:09;8.60;99.90
75262;DHT22;63859;51.064;4.580;2024-02-21T06:59:03;8.60;99.90
75262;DHT22;63859;51.064;4.580;2024-02-21T07:01:31;8.70;99.90
75262;DHT22;63859;51.064;4.580;2024-02-21T07:03:57;8.60;99.90
75262;DHT22;63859;51.064;4.580;2024-02-21T07:08:49;8.70;99.90
75262;DHT22;63859;51.064;4.580;2024-02-21T07:11:15;8.70;99.90
75262;DHT22;63859;51.064;4.580;2024-02-21T07:13:41;8.70;99.90
75262;DHT22;63859;51.064;4.580;2024-02-21T07:16:07;8.70;99.90
75262;DHT22;63859;51.064;4.580;2024-02-21T07:18:33;8.70;99.90
75262;DHT22;63859;51.064;4.580;2024-02-21T07:20:59;8.70;99.90
75262;DHT22;63859;51.064;4.580;2024-02-21T07:23:25;8.80;99.90
75262;DHT22;63859;51.064;4.580;2024-02-21T07:25:50;8.80;99.90
75262;DHT22;63859;51.064;4.580;2024-02-21T07:28:16;8.80;99.90
75262;DHT22;63859;51.064;4.580;2024-02-21T07:30:42;8.80;99.90
75262;DHT22;63859;51.064;4.580;2024-02-21T07:35:35;8.90;99.90
75262;DHT22;63859;51.064;4.580;2024-02-21T07:40:30;8.90;99.90
75262;DHT22;63859;51.064;4.580;2024-02-21T07:42:56;8.90;99.90
75262;DHT22;63859;51.064;4.580;2024-02-21T07:47:49;9.00;99.90
75262;DHT22;63859;51.064;4.580;2024-02-21T07:50:15;8.90;99.90
75262;DHT22;63859;51.064;4.580;2024-02-21T07:55:07;9.00;99.90
75262;DHT22;63859;51.064;4.580;2024-02-21T07:57:33;9.00;99.90
75262;DHT22;63859;51.064;4.580;2024-02-21T08:02:25;8.90;99.90
75262;DHT22;63859;51.064;4.580;2024-02-21T08:04:50;8.90;99.90
75262;DHT22;63859;51.064;4.580;2024-02-21T08:07:16;8.90;99.90
75262;DHT22;63859;51.064;4.580;2024-02-21T08:09:42;8.90;99.90
75262;DHT22;63859;51.064;4.580;2024-02-21T08:12:07;8.90;99.90
75262;DHT22;63859;51.064;4.580;2024-02-21T08:14:33;8.90;99.90
75262;DHT22;63859;51.064;4.580;2024-02-21T08:16:59;8.90;99.90
75262;DHT22;63859;51.064;4.580;2024-02-21T08:19:25;8.90;99.90
75262;DHT22;63859;51.064;4.580;2024-02-21T08:21:50;8.80;99.90
75262;DHT22;63859;51.064;4.580;2024-02-21T08:26:42;8.90;99.90
75262;DHT22;63859;51.064;4.580;2024-02-21T08:29:10;8.80;99.90
75262;DHT22;63859;51.064;4.580;2024-02-21T08:31:35;8.90;99.90
75262;DHT22;63859;51.064;4.580;2024-02-21T08:34:01;8.90;99.90
75262;DHT22;63859;51.064;4.580;2024-02-21T08:36:34;8.90;99.90
75262;DHT22;63859;51.064;4.580;2024-02-21T08:39:01;8.90;99.90
75262;DHT22;63859;51.064;4.580;2024-02-21T08:41:27;8.90;99.90
75262;DHT22;63859;51.064;4.580;2024-02-21T08:43:53;8.90;99.90
75262;DHT22;63859;51.064;4.580;2024-02-21T08:48:52;8.90;99.90
75262;DHT22;63859;51.064;4.580;2024-02-21T08:51:18;8.90;99.90
75262;DHT22;63859;51.064;4.580;2024-02-21T08:53:45;8.90;99.90
75262;DHT22;63859;51.064;4.580;2024-02-21T08:58:37;9.00;99.90
75262;DHT22;63859;51.064;4.580;2024-02-21T09:01:06;9.00;99.90
75262;DHT22;63859;51.064;4.580;2024-02-21T09:03:33;9.00;99.90
75262;DHT22;63859;51.064;4.580;2024-02-21T09:06:02;9.00;99.90
75262;DHT22;63859;51.064;4.580;2024-02-21T09:10:54;9.10;99.90
75262;DHT22;63859;51.064;4.580;2024-02-21T09:13:20;9.10;99.90
75262;DHT22;63859;51.064;4.580;2024-02-21T09:23:05;9.20;99.90
75262;DHT22;63859;51.064;4.580;2024-02-21T09:25:31;9.20;99.90
75262;DHT22;63859;51.064;4.580;2024-02-21T09:27:57;9.30;99.90
75262;DHT22;63859;51.064;4.580;2024-02-21T09:30:23;9.20;99.90
75262;DHT22;63859;51.064;4.580;2024-02-21T09:32:49;9.30;99.90
75262;DHT22;63859;51.064;4.580;2024-02-21T09:37:41;9.40;99.90
75262;DHT22;63859;51.064;4.580;2024-02-21T09:40:07;9.40;99.90
75262;DHT22;63859;51.064;4.580;2024-02-21T09:45:18;9.50;99.90
75262;DHT22;63859;51.064;4.580;2024-02-21T09:50:46;9.60;99.90
75262;DHT22;63859;51.064;4.580;2024-02-21T09:53:13;9.60;99.90
75262;DHT22;63859;51.064;4.580;2024-02-21T09:55:43;9.70;99.90
75262;DHT22;63859;51.064;4.580;2024-02-21T10:00:36;9.70;99.90
75262;DHT22;63859;51.064;4.580;2024-02-21T10:03:02;9.70;99.90
75262;DHT22;63859;51.064;4.580;2024-02-21T10:05:37;9.80;99.90
75262;DHT22;63859;51.064;4.580;2024-02-21T10:08:04;9.80;99.90
75262;DHT22;63859;51.064;4.580;2024-02-21T10:10:40;9.90;99.90
75262;DHT22;63859;51.064;4.580;2024-02-21T10:13:05;9.90;99.90
75262;DHT22;63859;51.064;4.580;2024-02-21T10:15:31;9.90;99.90
75262;DHT22;63859;51.064;4.580;2024-02-21T10:18:01;9.90;99.90
75262;DHT22;63859;51.064;4.580;2024-02-21T10:20:29;10.00;99.90
75262;DHT22;63859;51.064;4.580;2024-02-21T10:25:36;10.00;99.90
75262;DHT22;63859;51.064;4.580;2024-02-21T10:28:12;10.00;99.90
75262;DHT22;63859;51.064;4.580;2024-02-21T10:30:38;10.10;99.90
75262;DHT22;63859;51.064;4.580;2024-02-21T10:35:32;10.20;99.90
75262;DHT22;63859;51.064;4.580;2024-02-21T10:40:26;10.30;99.90
75262;DHT22;63859;51.064;4.580;2024-02-21T10:45:32;10.40;99.90
75262;DHT22;63859;51.064;4.580;2024-02-21T10:53:41;10.40;99.90
75262;DHT22;63859;51.064;4.580;2024-02-21T11:01:09;10.40;99.90
75262;DHT22;63859;51.064;4.580;2024-02-21T11:03:35;10.40;99.90
75262;DHT22;63859;51.064;4.580;2024-02-21T11:13:35;10.80;99.90
75262;DHT22;63859;51.064;4.580;2024-02-21T11:16:12;10.90;99.90
75262;DHT22;63859;51.064;4.580;2024-02-21T11:18:46;11.00;99.90
75262;DHT22;63859;51.064;4.580;2024-02-21T11:21:12;10.90;99.90
75262;DHT22;63859;51.064;4.580;2024-02-21T11:28:33;11.20;99.90
75262;DHT22;63859;51.064;4.580;2024-02-21T11:33:41;11.20;99.90
75262;DHT22;63859;51.064;4.580;2024-02-21T11:36:11;11.20;99.90
75262;DHT22;63859;51.064;4.580;2024-02-21T11:38:37;11.20;99.90
75262;DHT22;63859;51.064;4.580;2024-02-21T11:41:02;11.20;99.90
75262;DHT22;63859;51.064;4.580;2024-02-21T11:43:28;11.20;99.90
75262;DHT22;63859;51.064;4.580;2024-02-21T11:46:01;11.20;99.90
75262;DHT22;63859;51.064;4.580;2024-02-21T11:48:28;11.20;99.90
75262;DHT22;63859;51.064;4.580;2024-02-21T11:50:55;11.30;99.90
75262;DHT22;63859;51.064;4.580;2024-02-21T11:53:21;11.30;99.90
75262;DHT22;63859;51.064;4.580;2024-02-21T11:55:47;11.20;99.90
75262;DHT22;63859;51.064;4.580;2024-02-21T11:58:12;11.10;99.90
75262;DHT22;63859;51.064;4.580;2024-02-21T12:00:38;11.10;99.90
75262;DHT22;63859;51.064;4.580;2024-02-21T12:03:05;11.10;99.90
75262;DHT22;63859;51.064;4.580;2024-02-21T12:05:31;11.10;99.90
75262;DHT22;63859;51.064;4.580;2024-02-21T12:07:57;11.00;99.90
75262;DHT22;63859;51.064;4.580;2024-02-21T12:10:24;11.00;99.90
75262;DHT22;63859;51.064;4.580;2024-02-21T12:12:52;11.00;99.90
75262;DHT22;63859;51.064;4.580;2024-02-21T12:15:18;11.00;99.90
75262;DHT22;63859;51.064;4.580;2024-02-21T12:17:44;10.90;99.90
75262;DHT22;63859;51.064;4.580;2024-02-21T12:20:10;10.90;99.90
75262;DHT22;63859;51.064;4.580;2024-02-21T12:22:39;10.80;99.90
75262;DHT22;63859;51.064;4.580;2024-02-21T12:27:43;10.80;99.90
75262;DHT22;63859;51.064;4.580;2024-02-21T12:30:09;10.80;99.90
75262;DHT22;63859;51.064;4.580;2024-02-21T12:32:37;10.70;99.90
75262;DHT22;63859;51.064;4.580;2024-02-21T12:37:29;10.70;99.90
75262;DHT22;63859;51.064;4.580;2024-02-21T12:39:55;10.60;99.90
75262;DHT22;63859;51.064;4.580;2024-02-21T12:44:48;10.60;99.90
75262;DHT22;63859;51.064;4.580;2024-02-21T12:47:14;10.60;99.90
75262;DHT22;63859;51.064;4.580;2024-02-21T12:49:40;10.60;99.90
75262;DHT22;63859;51.064;4.580;2024-02-21T12:52:05;10.60;99.90
75262;DHT22;63859;51.064;4.580;2024-02-21T12:54:31;10.60;99.90
75262;DHT22;63859;51.064;4.580;2024-02-21T12:59:23;10.50;99.90
75262;DHT22;63859;51.064;4.580;2024-02-21T13:01:49;10.50;99.90
75262;DHT22;63859;51.064;4.580;2024-02-21T13:04:14;10.50;99.90
75262;DHT22;63859;51.064;4.580;2024-02-21T13:09:06;10.60;99.90
75262;DHT22;63859;51.064;4.580;2024-02-21T13:11:36;10.60;99.90
75262;DHT22;63859;51.064;4.580;2024-02-21T13:14:03;10.60;99.90
75262;DHT22;63859;51.064;4.580;2024-02-21T13:16:28;10.70;99.90
75262;DHT22;63859;51.064;4.580;2024-02-21T13:26:12;10.70;99.90
75262;DHT22;63859;51.064;4.580;2024-02-21T13:31:04;10.80;99.90
75262;DHT22;63859;51.064;4.580;2024-02-21T13:33:30;10.80;99.90
75262;DHT22;63859;51.064;4.580;2024-02-21T13:35:56;10.80;99.90
75262;DHT22;63859;51.064;4.580;2024-02-21T13:40:49;10.80;99.90
75262;DHT22;63859;51.064;4.580;2024-02-21T13:43:16;10.80;99.90
75262;DHT22;63859;51.064;4.580;2024-02-21T13:48:21;10.70;99.90
75262;DHT22;63859;51.064;4.580;2024-02-21T13:50:46;10.70;99.90
75262;DHT22;63859;51.064;4.580;2024-02-21T13:53:12;10.70;99.90
75262;DHT22;63859;51.064;4.580;2024-02-21T13:55:38;10.70;99.90
75262;DHT22;63859;51.064;4.580;2024-02-21T13:58:06;10.70;99.90
75262;DHT22;63859;51.064;4.580;2024-02-21T14:00:31;10.70;99.90
75262;DHT22;63859;51.064;4.580;2024-02-21T14:02:59;10.70;99.90
75262;DHT22;63859;51.064;4.580;2024-02-21T14:07:52;10.60;99.90
75262;DHT22;63859;51.064;4.580;2024-02-21T14:10:20;10.50;99.90
75262;DHT22;63859;51.064;4.580;2024-02-21T14:12:46;10.50;99.90
75262;DHT22;63859;51.064;4.580;2024-02-21T14:17:39;10.50;99.90
75262;DHT22;63859;51.064;4.580;2024-02-21T14:20:08;10.50;99.90
75262;DHT22;63859;51.064;4.580;2024-02-21T14:22:34;10.40;99.90
75262;DHT22;63859;51.064;4.580;2024-02-21T14:25:01;10.30;99.90
75262;DHT22;63859;51.064;4.580;2024-02-21T14:27:28;10.40;99.90
75262;DHT22;63859;51.064;4.580;2024-02-21T14:29:53;10.30;99.90
75262;DHT22;63859;51.064;4.580;2024-02-21T14:32:19;10.30;99.90
75262;DHT22;63859;51.064;4.580;2024-02-21T14:37:12;10.20;99.90
75262;DHT22;63859;51.064;4.580;2024-02-21T14:39:37;10.20;99.90
75262;DHT22;63859;51.064;4.580;2024-02-21T14:42:03;10.10;99.90
75262;DHT22;63859;51.064;4.580;2024-02-21T14:44:29;10.10;99.90
75262;DHT22;63859;51.064;4.580;2024-02-21T14:49:21;10.10;99.90
75262;DHT22;63859;51.064;4.580;2024-02-21T14:56:38;10.00;99.90
75262;DHT22;63859;51.064;4.580;2024-02-21T14:59:05;10.00;99.90
75262;DHT22;63859;51.064;4.580;2024-02-21T15:01:36;10.00;99.90
75262;DHT22;63859;51.064;4.580;2024-02-21T15:04:03;10.00;99.90
75262;DHT22;63859;51.064;4.580;2024-02-21T15:06:29;9.90;99.90
75262;DHT22;63859;51.064;4.580;2024-02-21T15:08:57;9.90;99.90
75262;DHT22;63859;51.064;4.580;2024-02-21T15:11:22;9.90;99.90
75262;DHT22;63859;51.064;4.580;2024-02-21T15:13:49;9.90;99.90
75262;DHT22;63859;51.064;4.580;2024-02-21T15:18:42;9.80;99.90
75262;DHT22;63859;51.064;4.580;2024-02-21T15:21:07;9.70;99.90
75262;DHT22;63859;51.064;4.580;2024-02-21T15:23:38;9.70;99.90
75262;DHT22;63859;51.064;4.580;2024-02-21T15:26:04;9.70;99.90
75262;DHT22;63859;51.064;4.580;2024-02-21T15:28:30;9.70;99.90
75262;DHT22;63859;51.064;4.580;2024-02-21T15:30:56;9.70;99.90
75262;DHT22;63859;51.064;4.580;2024-02-21T15:35:48;9.60;99.90
75262;DHT22;63859;51.064;4.580;2024-02-21T15:38:14;9.60;99.90
75262;DHT22;63859;51.064;4.580;2024-02-21T15:43:05;9.50;99.90
75262;DHT22;63859;51.064;4.580;2024-02-21T15:47:57;9.50;99.90
75262;DHT22;63859;51.064;4.580;2024-02-21T15:50:23;9.50;99.90
75262;DHT22;63859;51.064;4.580;2024-02-21T15:52:48;9.40;99.90
75262;DHT22;63859;51.064;4.580;2024-02-21T15:55:14;9.40;99.90
75262;DHT22;63859;51.064;4.580;2024-02-21T15:57:42;9.40;99.90
75262;DHT22;63859;51.064;4.580;2024-02-21T16:02:38;9.40;99.90
75262;DHT22;63859;51.064;4.580;2024-02-21T16:07:34;9.40;99.90
75262;DHT22;63859;51.064;4.580;2024-02-21T16:10:00;9.30;99.90
75262;DHT22;63859;51.064;4.580;2024-02-21T16:12:25;9.30;99.90
75262;DHT22;63859;51.064;4.580;2024-02-21T16:17:18;9.30;99.90
75262;DHT22;63859;51.064;4.580;2024-02-21T16:22:10;9.30;99.90
75262;DHT22;63859;51.064;4.580;2024-02-21T16:24:35;9.30;99.90
75262;DHT22;63859;51.064;4.580;2024-02-21T16:27:01;9.30;99.90
75262;DHT22;63859;51.064;4.580;2024-02-21T16:29:34;9.30;99.90
75262;DHT22;63859;51.064;4.580;2024-02-21T16:32:00;9.30;99.90
75262;DHT22;63859;51.064;4.580;2024-02-21T16:34:26;9.30;99.90
75262;DHT22;63859;51.064;4.580;2024-02-21T16:36:52;9.30;99.90
75262;DHT22;63859;51.064;4.580;2024-02-21T16:39:18;9.30;99.90
75262;DHT22;63859;51.064;4.580;2024-02-21T16:44:09;9.30;99.90
75262;DHT22;63859;51.064;4.580;2024-02-21T16:46:35;9.30;99.90
75262;DHT22;63859;51.064;4.580;2024-02-21T16:49:01;9.20;99.90
75262;DHT22;63859;51.064;4.580;2024-02-21T16:51:26;9.20;99.90
75262;DHT22;63859;51.064;4.580;2024-02-21T16:53:52;9.20;99.90
75262;DHT22;63859;51.064;4.580;2024-02-21T16:58:44;9.20;99.90
75262;DHT22;63859;51.064;4.580;2024-02-21T17:03:36;9.20;99.90
75262;DHT22;63859;51.064;4.580;2024-02-21T17:06:03;9.20;99.90
75262;DHT22;63859;51.064;4.580;2024-02-21T17:08:30;9.20;99.90
75262;DHT22;63859;51.064;4.580;2024-02-21T17:10:56;9.20;99.90
75262;DHT22;63859;51.064;4.580;2024-02-21T17:13:22;9.20;99.90
75262;DHT22;63859;51.064;4.580;2024-02-21T17:15:51;9.20;99.90
75262;DHT22;63859;51.064;4.580;2024-02-21T17:18:17;9.20;99.90
75262;DHT22;63859;51.064;4.580;2024-02-21T17:20:43;9.20;99.90
75262;DHT22;63859;51.064;4.580;2024-02-21T17:23:09;9.20;99.90
75262;DHT22;63859;51.064;4.580;2024-02-21T17:25:35;9.20;99.90
75262;DHT22;63859;51.064;4.580;2024-02-21T17:28:01;9.20;99.90
75262;DHT22;63859;51.064;4.580;2024-02-21T17:30:26;9.20;99.90
75262;DHT22;63859;51.064;4.580;2024-02-21T17:32:52;9.20;99.90
75262;DHT22;63859;51.064;4.580;2024-02-21T17:35:18;9.20;99.90
75262;DHT22;63859;51.064;4.580;2024-02-21T17:37:43;9.20;99.90
75262;DHT22;63859;51.064;4.580;2024-02-21T17:40:09;9.20;99.90
75262;DHT22;63859;51.064;4.580;2024-02-21T17:42:35;9.20;99.90
75262;DHT22;63859;51.064;4.580;2024-02-21T17:45:02;9.20;99.90
75262;DHT22;63859;51.064;4.580;2024-02-21T17:47:28;9.20;99.90
75262;DHT22;63859;51.064;4.580;2024-02-21T17:49:54;9.20;99.90
75262;DHT22;63859;51.064;4.580;2024-02-21T17:52:19;9.20;99.90
75262;DHT22;63859;51.064;4.580;2024-02-21T17:54:46;9.20;99.90
75262;DHT22;63859;51.064;4.580;2024-02-21T17:57:13;9.20;99.90
75262;DHT22;63859;51.064;4.580;2024-02-21T17:59:42;9.20;99.90
75262;DHT22;63859;51.064;4.580;2024-02-21T18:04:35;9.30;99.90
75262;DHT22;63859;51.064;4.580;2024-02-21T18:09:29;9.20;99.90
75262;DHT22;63859;51.064;4.580;2024-02-21T18:11:56;9.30;99.90
75262;DHT22;63859;51.064;4.580;2024-02-21T18:14:22;9.30;99.90
75262;DHT22;63859;51.064;4.580;2024-02-21T18:16:48;9.30;99.90
75262;DHT22;63859;51.064;4.580;2024-02-21T18:19:14;9.30;99.90
75262;DHT22;63859;51.064;4.580;2024-02-21T18:21:40;9.30;99.90
75262;DHT22;63859;51.064;4.580;2024-02-21T18:24:06;9.30;99.90
75262;DHT22;63859;51.064;4.580;2024-02-21T18:26:31;9.30;99.90
75262;DHT22;63859;51.064;4.580;2024-02-21T18:28:58;9.30;99.90
75262;DHT22;63859;51.064;4.580;2024-02-21T18:31:25;9.30;99.90
75262;DHT22;63859;51.064;4.580;2024-02-21T18:33:53;9.30;99.90
75262;DHT22;63859;51.064;4.580;2024-02-21T18:36:18;9.30;99.90
75262;DHT22;63859;51.064;4.580;2024-02-21T18:41:11;9.30;99.90
75262;DHT22;63859;51.064;4.580;2024-02-21T18:43:37;9.30;99.90
75262;DHT22;63859;51.064;4.580;2024-02-21T18:46:03;9.40;99.90
75262;DHT22;63859;51.064;4.580;2024-02-21T18:48:28;9.40;99.90
75262;DHT22;63859;51.064;4.580;2024-02-21T18:50:55;9.40;99.90
75262;DHT22;63859;51.064;4.580;2024-02-21T18:53:21;9.40;99.90
75262;DHT22;63859;51.064;4.580;2024-02-21T18:55:46;9.40;99.90
75262;DHT22;63859;51.064;4.580;2024-02-21T18:58:12;9.40;99.90
75262;DHT22;63859;51.064;4.580;2024-02-21T19:00:38;9.40;99.90
75262;DHT22;63859;51.064;4.580;2024-02-21T19:03:03;9.40;99.90
75262;DHT22;63859;51.064;4.580;2024-02-21T19:05:29;9.50;99.90
75262;DHT22;63859;51.064;4.580;2024-02-21T19:07:55;9.40;99.90
75262;DHT22;63859;51.064;4.580;2024-02-21T19:10:21;9.40;99.90
75262;DHT22;63859;51.064;4.580;2024-02-21T19:12:47;9.40;99.90
75262;DHT22;63859;51.064;4.580;2024-02-21T19:15:12;9.50;99.90
75262;DHT22;63859;51.064;4.580;2024-02-21T19:17:38;9.50;99.90
75262;DHT22;63859;51.064;4.580;2024-02-21T19:22:30;9.50;99.90
75262;DHT22;63859;51.064;4.580;2024-02-21T19:24:58;9.50;99.90
75262;DHT22;63859;51.064;4.580;2024-02-21T19:32:19;9.50;99.90
75262;DHT22;63859;51.064;4.580;2024-02-21T19:37:13;9.50;99.90
75262;DHT22;63859;51.064;4.580;2024-02-21T19:39:38;9.50;99.90
75262;DHT22;63859;51.064;4.580;2024-02-21T19:42:04;9.50;99.90
75262;DHT22;63859;51.064;4.580;2024-02-21T19:46:57;9.50;99.90
75262;DHT22;63859;51.064;4.580;2024-02-21T19:49:22;9.60;99.90
75262;DHT22;63859;51.064;4.580;2024-02-21T19:51:49;9.60;99.90
75262;DHT22;63859;51.064;4.580;2024-02-21T19:54:15;9.50;99.90
75262;DHT22;63859;51.064;4.580;2024-02-21T19:56:44;9.50;99.90
75262;DHT22;63859;51.064;4.580;2024-02-21T19:59:09;9.50;99.90
75262;DHT22;63859;51.064;4.580;2024-02-21T20:04:05;9.50;99.90
75262;DHT22;63859;51.064;4.580;2024-02-21T20:06:30;9.50;99.90
75262;DHT22;63859;51.064;4.580;2024-02-21T20:11:24;9.60;99.90
75262;DHT22;63859;51.064;4.580;2024-02-21T20:16:21;9.60;99.90
75262;DHT22;63859;51.064;4.580;2024-02-21T20:18:48;9.60;99.90
75262;DHT22;63859;51.064;4.580;2024-02-21T20:21:15;9.60;99.90
75262;DHT22;63859;51.064;4.580;2024-02-21T20:23:40;9.60;99.90
75262;DHT22;63859;51.064;4.580;2024-02-21T20:26:06;9.60;99.90
75262;DHT22;63859;51.064;4.580;2024-02-21T20:28:33;9.60;99.90
75262;DHT22;63859;51.064;4.580;2024-02-21T20:33:26;9.60;99.90
75262;DHT22;63859;51.064;4.580;2024-02-21T20:40:43;9.70;99.90
75262;DHT22;63859;51.064;4.580;2024-02-21T20:45:36;9.70;99.90
75262;DHT22;63859;51.064;4.580;2024-02-21T20:48:04;9.70;99.90
75262;DHT22;63859;51.064;4.580;2024-02-21T20:50:30;9.70;99.90